createdAt,value
2022-11-24T00:02:02.323Z,0.96
2022-11-24T00:04:34.978Z,0.97
2022-11-24T00:07:07.155Z,0.97
2022-11-24T00:09:38.223Z,0.96
2022-11-24T00:12:06.141Z,0.97
2022-11-24T00:14:34.383Z,0.96
2022-11-24T00:17:07.850Z,0.94
2022-11-24T00:19:35.877Z,0.95
2022-11-24T00:22:03.974Z,0.96
2022-11-24T00:24:32.425Z,0.95
2022-11-24T00:27:04.288Z,0.95
2022-11-24T00:29:32.112Z,0.95
2022-11-24T00:32:00.146Z,0.94
2022-11-24T00:34:31.363Z,0.94
2022-11-24T00:37:03.642Z,0.95
2022-11-24T00:39:31.669Z,0.96
2022-11-24T00:41:59.731Z,0.96
2022-11-24T00:44:30.798Z,0.97
2022-11-24T00:47:03.451Z,0.98
2022-11-24T00:49:41.171Z,0.99
2022-11-24T00:52:09.354Z,0.99
2022-11-24T00:54:37.463Z,0.99
2022-11-24T00:57:05.503Z,1.00
2022-11-24T00:59:33.552Z,1.00
2022-11-24T01:02:01.610Z,1.00
2022-11-24T01:04:37.282Z,1.00
2022-11-24T01:07:05.849Z,1.00
2022-11-24T01:09:39.053Z,1.01
2022-11-24T01:12:07.125Z,1.02
2022-11-24T01:14:35.575Z,1.03
2022-11-24T01:17:07.597Z,1.04
2022-11-24T01:19:38.726Z,1.05
2022-11-24T01:22:06.659Z,1.06
2022-11-24T01:24:34.731Z,1.05
2022-11-24T01:27:11.928Z,1.05
2022-11-24T01:29:39.993Z,1.05
2022-11-24T01:32:07.870Z,1.05
2022-11-24T01:34:35.973Z,1.05
2022-11-24T01:37:07.900Z,1.06
2022-11-24T01:39:39.021Z,1.07
2022-11-24T01:42:11.924Z,1.07
2022-11-24T01:44:45.936Z,1.08
2022-11-24T01:47:42.370Z,1.09
2022-11-24T01:50:18.792Z,1.07
2022-11-24T01:52:57.135Z,1.06
2022-11-24T01:55:36.480Z,1.07
2022-11-24T01:58:26.321Z,1.08
2022-11-24T02:00:59.539Z,1.08
2022-11-24T02:03:35.721Z,1.09
2022-11-24T02:06:16.198Z,1.09
2022-11-24T02:09:08.622Z,1.09
2022-11-24T02:11:44.690Z,1.08
2022-11-24T02:14:19.360Z,1.08
2022-11-24T02:16:54.030Z,1.08
2022-11-24T02:19:49.145Z,1.08
2022-11-24T02:22:45.166Z,1.08
2022-11-24T02:25:27.729Z,1.08
2022-11-24T02:27:59.940Z,1.08
2022-11-24T02:30:28.085Z,1.07
2022-11-24T02:33:00.618Z,1.05
2022-11-24T02:35:33.890Z,1.06
2022-11-24T02:38:01.999Z,1.07
2022-11-24T02:40:35.040Z,1.08
2022-11-24T02:43:10.265Z,1.08
2022-11-24T02:45:38.388Z,1.08
2022-11-24T02:48:09.200Z,1.08
2022-11-24T02:50:37.333Z,1.09
2022-11-24T02:53:05.286Z,1.10
2022-11-24T02:55:33.467Z,1.09
2022-11-24T02:58:01.619Z,1.07
2022-11-24T03:00:31.715Z,1.06
2022-11-24T03:03:05.272Z,1.02
2022-11-24T03:05:33.492Z,0.97
2022-11-24T03:08:01.808Z,0.95
2022-11-24T03:10:34.430Z,0.96
2022-11-24T03:13:02.274Z,0.97
2022-11-24T03:15:30.238Z,0.97
2022-11-24T03:17:58.460Z,0.98
2022-11-24T03:20:31.146Z,0.97
2022-11-24T03:22:59.079Z,0.95
2022-11-24T03:25:27.141Z,0.95
2022-11-24T03:27:59.627Z,0.93
2022-11-24T03:30:27.565Z,0.93
2022-11-24T03:32:55.423Z,0.90
2022-11-24T03:35:28.236Z,0.89
2022-11-24T03:37:56.330Z,0.91
2022-11-24T03:40:24.383Z,0.92
2022-11-24T03:42:52.477Z,0.93
2022-11-24T03:45:44.870Z,0.94
2022-11-24T03:48:08.565Z,0.95
2022-11-24T03:50:36.600Z,0.96
2022-11-24T03:53:09.615Z,0.97
2022-11-24T03:55:37.795Z,0.98
2022-11-24T03:58:05.858Z,0.98
2022-11-24T04:00:33.757Z,0.98
2022-11-24T04:03:01.707Z,0.98
2022-11-24T04:05:39.460Z,0.99
2022-11-24T04:08:07.557Z,1.01
2022-11-24T04:10:39.647Z,1.03
2022-11-24T04:13:17.529Z,1.04
2022-11-24T04:15:50.476Z,1.02
2022-11-24T04:18:23.504Z,0.97
2022-11-24T04:20:56.436Z,0.95
2022-11-24T04:23:24.298Z,0.97
2022-11-24T04:25:52.140Z,0.96
2022-11-24T04:28:20.014Z,0.93
2022-11-24T04:30:47.952Z,0.89
2022-11-24T04:33:15.946Z,0.85
2022-11-24T04:35:43.861Z,0.85
2022-11-24T04:38:11.797Z,0.84
2022-11-24T04:40:39.709Z,0.79
2022-11-24T04:43:07.590Z,0.74
2022-11-24T04:45:37.232Z,0.73
2022-11-24T04:48:10.389Z,0.71
2022-11-24T04:50:41.728Z,0.63
2022-11-24T04:53:14.924Z,0.54
2022-11-24T04:55:47.604Z,0.48
2022-11-24T04:58:15.783Z,0.44
2022-11-24T05:00:43.849Z,0.44
2022-11-24T05:03:11.977Z,0.45
2022-11-24T05:05:41.325Z,0.47
2022-11-24T05:08:10.225Z,0.45
2022-11-24T05:10:40.633Z,0.44
2022-11-24T05:13:17.449Z,0.43
2022-11-24T05:15:45.278Z,0.44
2022-11-24T05:18:18.538Z,0.45
2022-11-24T05:20:46.588Z,0.48
2022-11-24T05:23:19.309Z,0.49
2022-11-24T05:25:47.953Z,0.50
2022-11-24T05:28:18.173Z,0.48
2022-11-24T05:30:48.347Z,0.48
2022-11-24T05:33:21.325Z,0.44
2022-11-24T05:35:54.282Z,0.39
2022-11-24T05:38:27.255Z,0.36
2022-11-24T05:40:55.074Z,0.34
2022-11-24T05:43:22.898Z,0.35
2022-11-24T05:45:52.378Z,0.37
2022-11-24T05:48:20.390Z,0.36
2022-11-24T05:50:57.847Z,0.34
2022-11-24T05:53:31.699Z,0.29
2022-11-24T05:56:07.082Z,0.27
2022-11-24T05:58:35.076Z,0.27
2022-11-24T06:01:10.229Z,0.29
2022-11-24T06:03:37.996Z,0.33
2022-11-24T06:06:06.036Z,0.37
2022-11-24T06:08:35.404Z,0.39
2022-11-24T06:11:18.596Z,0.41
2022-11-24T06:13:51.845Z,0.39
2022-11-24T06:16:19.956Z,0.40
2022-11-24T06:18:47.844Z,0.40
2022-11-24T06:21:19.901Z,0.41
2022-11-24T06:23:50.243Z,0.41
2022-11-24T06:26:20.369Z,0.37
2022-11-24T06:28:48.411Z,0.37
2022-11-24T06:31:16.294Z,0.37
2022-11-24T06:33:46.012Z,0.35
2022-11-24T06:36:19.119Z,0.29
2022-11-24T06:38:46.949Z,0.31
2022-11-24T06:41:20.899Z,0.35
2022-11-24T06:43:48.858Z,0.37
2022-11-24T06:46:16.788Z,0.33
2022-11-24T06:48:44.688Z,0.29
2022-11-24T06:51:13.202Z,0.23
2022-11-24T06:53:46.085Z,0.23
2022-11-24T06:56:20.454Z,0.23
2022-11-24T06:58:55.328Z,0.21
2022-11-24T07:01:29.685Z,0.22
2022-11-24T07:04:00.773Z,0.21
2022-11-24T07:06:28.634Z,0.23
2022-11-24T07:08:56.469Z,0.28
2022-11-24T07:11:29.054Z,0.32
2022-11-24T07:14:02.138Z,0.35
2022-11-24T07:16:32.174Z,0.33
2022-11-24T07:19:01.854Z,0.30
2022-11-24T07:21:31.813Z,0.24
2022-11-24T07:23:59.693Z,0.23
2022-11-24T07:26:37.222Z,0.23
2022-11-24T07:29:10.003Z,0.23
2022-11-24T07:31:37.927Z,0.26
2022-11-24T07:34:10.952Z,0.29
2022-11-24T07:36:38.716Z,0.33
2022-11-24T07:39:15.811Z,0.36
2022-11-24T07:41:43.695Z,0.39
2022-11-24T07:44:11.452Z,0.38
2022-11-24T07:46:39.203Z,0.40
2022-11-24T07:49:07.011Z,0.39
2022-11-24T07:51:37.110Z,0.38
2022-11-24T07:54:04.920Z,0.37
2022-11-24T07:56:32.697Z,0.38
2022-11-24T07:59:05.384Z,0.41
2022-11-24T08:01:33.155Z,0.42
2022-11-24T08:04:05.862Z,0.44
2022-11-24T08:06:39.654Z,0.43
2022-11-24T08:09:10.303Z,0.43
2022-11-24T08:11:38.129Z,0.48
2022-11-24T08:14:05.935Z,0.53
2022-11-24T08:16:33.745Z,0.54
2022-11-24T08:19:01.571Z,0.54
2022-11-24T08:21:29.384Z,0.54
2022-11-24T08:24:02.161Z,0.52
2022-11-24T08:26:30.109Z,0.52
2022-11-24T08:29:03.425Z,0.57
2022-11-24T08:31:38.009Z,0.63
2022-11-24T08:34:10.841Z,0.64
2022-11-24T08:36:38.943Z,0.65
2022-11-24T08:39:06.747Z,0.66
2022-11-24T08:41:34.806Z,0.67
2022-11-24T08:44:02.550Z,0.69
2022-11-24T08:46:30.487Z,0.70
2022-11-24T08:48:58.324Z,0.73
2022-11-24T08:51:31.408Z,0.76
2022-11-24T08:54:05.109Z,0.78
2022-11-24T08:56:37.891Z,0.76
2022-11-24T08:59:05.741Z,0.77
2022-11-24T09:01:33.737Z,0.80
2022-11-24T09:04:06.222Z,0.84
2022-11-24T09:06:34.009Z,0.86
2022-11-24T09:09:06.957Z,0.92
2022-11-24T09:11:39.713Z,0.97
2022-11-24T09:14:07.647Z,1.01
2022-11-24T09:16:40.677Z,1.04
2022-11-24T09:19:08.485Z,1.06
2022-11-24T09:21:40.949Z,1.04
2022-11-24T09:24:16.573Z,1.02
2022-11-24T09:26:47.703Z,1.02
2022-11-24T09:29:20.408Z,1.03
2022-11-24T09:31:48.445Z,1.09
2022-11-24T09:34:21.106Z,1.13
2022-11-24T09:36:53.897Z,1.19
2022-11-24T09:39:21.799Z,1.23
2022-11-24T09:42:34.426Z,1.26
2022-11-24T09:45:26.299Z,1.26
2022-11-24T09:48:37.840Z,1.29
2022-11-24T09:51:11.920Z,1.30
2022-11-24T09:53:52.247Z,1.30
2022-11-24T09:56:36.005Z,1.31
2022-11-24T09:59:17.681Z,1.32
2022-11-24T10:01:52.593Z,1.33
2022-11-24T10:04:42.972Z,1.33
2022-11-24T10:07:42.301Z,1.35
2022-11-24T10:10:25.003Z,1.35
2022-11-24T10:13:35.566Z,1.36
2022-11-24T10:16:42.879Z,1.41
2022-11-24T10:19:47.107Z,1.42
2022-11-24T10:22:56.401Z,1.36
2022-11-24T10:25:52.852Z,1.31
2022-11-24T10:28:20.635Z,1.31
2022-11-24T10:31:05.042Z,1.32
2022-11-24T10:33:38.087Z,1.37
2022-11-24T10:36:42.148Z,1.39
2022-11-24T10:39:27.749Z,1.41
2022-11-24T10:42:20.353Z,1.45
2022-11-24T10:45:01.556Z,1.51
2022-11-24T10:47:34.879Z,1.52
2022-11-24T10:50:24.916Z,1.52
2022-11-24T10:53:17.438Z,1.56
2022-11-24T10:55:54.256Z,1.60
2022-11-24T10:58:38.025Z,1.63
2022-11-24T11:01:13.383Z,1.68
2022-11-24T11:03:55.357Z,1.74
2022-11-24T11:06:32.232Z,1.73
2022-11-24T11:09:09.363Z,1.72
2022-11-24T11:11:43.772Z,1.76
2022-11-24T11:14:17.567Z,1.83
2022-11-24T11:16:53.742Z,1.88
2022-11-24T11:19:50.558Z,1.91
2022-11-24T11:22:28.599Z,1.93
2022-11-24T11:25:11.683Z,1.89
2022-11-24T11:27:45.277Z,1.90
2022-11-24T11:36:15.951Z,1.89
2022-11-24T11:38:49.053Z,1.89
2022-11-24T11:41:30.164Z,1.92
2022-11-24T11:44:26.144Z,1.93
2022-11-24T11:47:02.433Z,1.93
2022-11-24T11:49:30.327Z,1.92
2022-11-24T11:52:18.335Z,1.89
2022-11-24T11:55:24.260Z,1.91
2022-11-24T11:57:57.823Z,1.94
2022-11-24T12:00:25.655Z,1.97
2022-11-24T12:03:22.204Z,2.00
2022-11-24T12:06:02.857Z,2.01
2022-11-24T12:09:18.809Z,2.03
2022-11-24T12:11:40.073Z,2.02
2022-11-24T12:14:32.775Z,2.03
2022-11-24T12:17:27.914Z,2.06
2022-11-24T12:20:21.024Z,2.12
2022-11-24T12:23:04.014Z,2.15
2022-11-24T12:25:45.876Z,2.17
2022-11-24T12:28:52.594Z,2.18
2022-11-24T12:31:36.482Z,2.17
2022-11-24T12:34:23.089Z,2.16
2022-11-24T12:37:03.293Z,2.15
2022-11-24T12:39:54.648Z,2.17
2022-11-24T12:43:00.422Z,2.18
2022-11-24T12:45:56.167Z,2.20
2022-11-24T12:49:08.917Z,2.20
2022-11-24T12:51:44.847Z,2.18
2022-11-24T12:54:20.066Z,2.19
2022-11-24T12:57:11.243Z,2.22
2022-11-24T12:59:48.426Z,2.20
2022-11-24T13:02:39.409Z,2.20
2022-11-24T13:05:57.465Z,2.22
2022-11-24T13:08:31.542Z,2.20
2022-11-24T13:11:21.074Z,2.19
2022-11-24T13:14:20.889Z,2.18
2022-11-24T13:19:53.151Z,2.21
2022-11-24T13:22:29.848Z,2.20
2022-11-24T13:25:36.894Z,2.19
2022-11-24T13:29:01.367Z,2.18
2022-11-24T13:31:26.587Z,2.18
2022-11-24T13:33:54.434Z,2.17
2022-11-24T13:36:25.396Z,2.17
2022-11-24T13:39:04.198Z,2.19
2022-11-24T13:41:32.085Z,2.20
2022-11-24T13:44:15.261Z,2.21
2022-11-24T13:47:26.302Z,2.21
2022-11-24T13:49:54.123Z,2.20
2022-11-24T13:52:48.855Z,2.20
2022-11-24T13:55:21.404Z,2.22
2022-11-24T13:58:00.504Z,2.23
2022-11-24T14:00:36.012Z,2.24
2022-11-24T14:03:13.781Z,2.25
2022-11-24T14:05:49.471Z,2.25
2022-11-24T14:08:29.490Z,2.23
2022-11-24T14:11:03.543Z,2.24
2022-11-24T14:13:37.106Z,2.25
2022-11-24T14:16:37.344Z,2.26
2022-11-24T14:19:18.872Z,2.27
2022-11-24T14:21:46.910Z,2.28
2022-11-24T14:24:39.864Z,2.29
2022-11-24T14:27:23.608Z,2.29
2022-11-24T14:30:04.136Z,2.30
2022-11-24T14:32:32.058Z,2.31
2022-11-24T14:34:59.930Z,2.30
2022-11-24T14:37:28.048Z,2.28
2022-11-24T14:39:55.902Z,2.24
2022-11-24T14:42:30.798Z,2.20
2022-11-24T14:45:04.701Z,2.20
2022-11-24T14:47:38.713Z,2.20
2022-11-24T14:50:23.691Z,2.21
2022-11-24T14:52:59.040Z,2.21
2022-11-24T14:55:32.011Z,2.22
2022-11-24T14:58:02.900Z,2.23
2022-11-24T15:00:36.359Z,2.24
2022-11-24T15:03:04.110Z,2.24
2022-11-24T15:06:05.117Z,2.25
2022-11-24T15:08:46.620Z,2.23
2022-11-24T15:11:19.909Z,2.21
2022-11-24T15:13:57.910Z,2.18
2022-11-24T15:16:32.569Z,2.16
2022-11-24T15:19:02.866Z,2.15
2022-11-24T15:21:40.589Z,2.12
2022-11-24T15:24:20.702Z,2.10
2022-11-24T15:27:02.866Z,2.06
2022-11-24T15:29:30.720Z,2.01
2022-11-24T15:31:58.668Z,1.97
2022-11-24T15:34:26.729Z,1.90
2022-11-24T15:36:54.546Z,1.84
2022-11-24T15:39:22.338Z,1.80
2022-11-24T15:41:50.335Z,1.80
2022-11-24T15:44:18.186Z,1.80
2022-11-24T15:46:46.058Z,1.78
2022-11-24T15:49:15.594Z,1.74
2022-11-24T15:51:45.915Z,1.70
2022-11-24T15:54:18.699Z,1.67
2022-11-24T15:56:47.166Z,1.64
2022-11-24T15:59:20.624Z,1.62
2022-11-24T16:01:51.332Z,1.60
2022-11-24T16:04:19.177Z,1.57
2022-11-24T16:06:47.104Z,1.53
2022-11-24T16:09:19.750Z,1.47
2022-11-24T16:11:47.581Z,1.48
2022-11-24T16:14:15.461Z,1.45
2022-11-24T16:16:48.127Z,1.40
2022-11-24T16:19:16.051Z,1.37
2022-11-24T16:21:47.099Z,1.34
2022-11-24T16:24:15.612Z,1.30
2022-11-24T16:26:43.411Z,1.28
2022-11-24T16:29:11.461Z,1.27
2022-11-24T16:31:39.336Z,1.27
2022-11-24T16:34:07.237Z,1.26
2022-11-24T16:36:35.193Z,1.25
2022-11-24T16:39:03.106Z,1.22
2022-11-24T16:41:30.980Z,1.22
2022-11-24T16:44:03.857Z,1.20
2022-11-24T16:46:32.042Z,1.20
2022-11-24T16:49:05.762Z,1.18
2022-11-24T16:51:35.123Z,1.16
2022-11-24T16:54:13.075Z,1.12
2022-11-24T16:56:40.975Z,1.11
2022-11-24T16:59:08.963Z,1.10
2022-11-24T17:01:41.884Z,1.10
2022-11-24T17:04:12.838Z,1.07
2022-11-24T17:06:45.663Z,1.03
2022-11-24T17:09:13.551Z,1.03
2022-11-24T17:11:46.098Z,1.04
2022-11-24T17:14:19.346Z,1.04
2022-11-24T17:16:52.007Z,1.02
2022-11-24T17:19:25.389Z,1.00
2022-11-24T17:21:59.149Z,0.96
2022-11-24T17:24:29.091Z,0.95
2022-11-24T17:26:57.021Z,0.95
2022-11-24T17:29:24.954Z,0.95
2022-11-24T17:31:52.869Z,0.94
2022-11-24T17:34:20.796Z,0.94
2022-11-24T17:36:48.630Z,0.95
2022-11-24T17:39:20.311Z,0.96
2022-11-24T17:41:51.273Z,0.93
2022-11-24T17:44:19.297Z,0.89
2022-11-24T17:46:47.263Z,0.86
2022-11-24T17:49:15.786Z,0.84
2022-11-24T17:51:47.240Z,0.83
2022-11-24T17:57:03.116Z,0.82
2022-11-24T17:59:35.831Z,0.82
2022-11-24T18:02:11.803Z,0.82
2022-11-24T18:04:40.979Z,0.81
2022-11-24T18:07:08.897Z,0.78
2022-11-24T18:09:42.705Z,0.76
2022-11-24T18:12:10.604Z,0.75
2022-11-24T18:14:38.581Z,0.74
2022-11-24T18:17:06.683Z,0.73
2022-11-24T18:19:39.212Z,0.70
2022-11-24T18:22:08.871Z,0.69
2022-11-24T18:24:36.954Z,0.70
2022-11-24T18:27:09.496Z,0.67
2022-11-24T18:29:37.376Z,0.65
2022-11-24T18:32:09.924Z,0.64
2022-11-24T18:34:37.934Z,0.58
2022-11-24T18:37:05.939Z,0.46
2022-11-24T18:39:33.843Z,0.43
2022-11-24T18:42:01.728Z,0.41
2022-11-24T18:44:29.650Z,0.37
2022-11-24T18:46:57.481Z,0.31
2022-11-24T18:49:25.291Z,0.28
2022-11-24T18:51:55.986Z,0.25
2022-11-24T18:54:31.297Z,0.21
2022-11-24T18:57:03.339Z,0.21
2022-11-24T18:59:35.191Z,0.14
2022-11-24T19:02:03.103Z,0.11
2022-11-24T19:04:35.763Z,0.00
2022-11-24T19:07:08.391Z,-0.07
2022-11-24T19:09:40.947Z,-0.17
2022-11-24T19:12:10.544Z,-0.25
2022-11-24T19:14:43.354Z,-0.28
2022-11-24T19:17:14.436Z,-0.30
2022-11-24T19:19:42.463Z,-0.34
2022-11-24T19:22:20.510Z,-0.37
2022-11-24T19:24:52.374Z,-0.38
2022-11-24T19:27:22.051Z,-0.40
2022-11-24T19:29:49.820Z,-0.41
2022-11-24T19:32:23.748Z,-0.39
2022-11-24T19:34:51.758Z,-0.40
2022-11-24T19:37:19.562Z,-0.40
2022-11-24T19:39:47.394Z,-0.39
2022-11-24T19:42:15.423Z,-0.39
2022-11-24T19:44:43.211Z,-0.39
2022-11-24T19:47:11.172Z,-0.35
2022-11-24T19:49:38.946Z,-0.34
2022-11-24T19:52:09.619Z,-0.36
2022-11-24T19:54:37.540Z,-0.41
2022-11-24T19:57:07.053Z,-0.45
2022-11-24T19:59:34.809Z,-0.47
2022-11-24T20:02:02.846Z,-0.46
2022-11-24T20:04:40.732Z,-0.48
2022-11-24T20:07:13.596Z,-0.49
2022-11-24T20:09:41.401Z,-0.47
2022-11-24T20:12:15.491Z,-0.44
2022-11-24T20:14:43.292Z,-0.44
2022-11-24T20:17:15.850Z,-0.53
2022-11-24T20:19:43.653Z,-0.62
2022-11-24T20:22:16.129Z,-0.66
2022-11-24T20:24:43.974Z,-0.68
2022-11-24T20:27:11.768Z,-0.69
2022-11-24T20:29:45.244Z,-0.69
2022-11-24T20:32:21.266Z,-0.70
2022-11-24T20:34:54.049Z,-0.75
2022-11-24T20:37:25.201Z,-0.80
2022-11-24T20:39:52.955Z,-0.84
2022-11-24T20:42:21.302Z,-0.87
2022-11-24T20:44:49.321Z,-0.87
2022-11-24T20:47:22.008Z,-0.84
2022-11-24T20:49:49.783Z,-0.85
2022-11-24T20:52:17.571Z,-0.85
2022-11-24T20:54:51.395Z,-0.84
2022-11-24T20:57:19.204Z,-0.84
2022-11-24T20:59:51.732Z,-0.84
2022-11-24T21:02:23.093Z,-0.82
2022-11-24T21:04:51.209Z,-0.83
2022-11-24T21:07:19.003Z,-0.84
2022-11-24T21:09:46.815Z,-0.83
2022-11-24T21:12:14.644Z,-0.83
2022-11-24T21:14:47.086Z,-0.86
2022-11-24T21:17:14.905Z,-0.85
2022-11-24T21:19:42.676Z,-0.83
2022-11-24T21:22:10.484Z,-0.81
2022-11-24T21:24:38.238Z,-0.79
2022-11-24T21:27:06.082Z,-0.78
2022-11-24T21:29:34.089Z,-0.76
2022-11-24T21:32:02.063Z,-0.75
2022-11-24T21:34:30.269Z,-0.73
2022-11-24T21:36:58.129Z,-0.71
2022-11-24T21:39:26.056Z,-0.71
2022-11-24T21:41:54.065Z,-0.71
2022-11-24T21:44:22.340Z,-0.69
2022-11-24T21:46:55.690Z,-0.68
2022-11-24T21:49:24.373Z,-0.69
2022-11-24T21:51:56.171Z,-0.71
2022-11-24T21:54:24.586Z,-0.73
2022-11-24T21:56:53.859Z,-0.72
2022-11-24T21:59:22.617Z,-0.72
2022-11-24T22:01:50.718Z,-0.73
2022-11-24T22:04:18.612Z,-0.74
2022-11-24T22:06:46.447Z,-0.74
2022-11-24T22:09:18.016Z,-0.73
2022-11-24T22:11:52.655Z,-0.72
2022-11-24T22:14:20.406Z,-0.73
2022-11-24T22:16:48.315Z,-0.75
2022-11-24T22:19:16.128Z,-0.75
2022-11-24T22:21:45.055Z,-0.75
2022-11-24T22:24:12.894Z,-0.72
2022-11-24T22:26:40.843Z,-0.72
2022-11-24T22:29:08.728Z,-0.71
2022-11-24T22:31:36.756Z,-0.72
2022-11-24T22:34:05.667Z,-0.72
2022-11-24T22:36:33.545Z,-0.73
2022-11-24T22:39:05.087Z,-0.71
2022-11-24T22:41:35.432Z,-0.69
2022-11-24T22:44:04.938Z,-0.69
2022-11-24T22:46:32.971Z,-0.68
2022-11-24T22:49:02.372Z,-0.66
2022-11-24T22:51:34.210Z,-0.66
2022-11-24T22:54:04.642Z,-0.68
2022-11-24T22:56:33.982Z,-0.69
2022-11-24T22:59:04.752Z,-0.67
2022-11-24T23:01:34.328Z,-0.68
2022-11-24T23:04:04.171Z,-0.68
2022-11-24T23:06:33.882Z,-0.71
2022-11-24T23:09:04.114Z,-0.69
2022-11-24T23:11:38.382Z,-0.69
2022-11-24T23:14:12.326Z,-0.74
2022-11-24T23:16:40.309Z,-0.75
2022-11-24T23:19:09.276Z,-0.74
2022-11-24T23:21:39.124Z,-0.72
2022-11-24T23:24:09.953Z,-0.70
2022-11-24T23:26:41.469Z,-0.68
2022-11-24T23:29:11.971Z,-0.66
2022-11-24T23:31:40.331Z,-0.64
2022-11-24T23:34:10.215Z,-0.65
2022-11-24T23:36:39.272Z,-0.64
2022-11-24T23:39:12.220Z,-0.61
2022-11-24T23:41:40.432Z,-0.62
2022-11-24T23:44:08.355Z,-0.62
2022-11-24T23:46:36.168Z,-0.62
2022-11-24T23:49:03.920Z,-0.62
2022-11-24T23:51:33.511Z,-0.61
2022-11-24T23:54:02.487Z,-0.58
2022-11-24T23:56:33.220Z,-0.58
2022-11-24T23:59:04.976Z,-0.57
